BAW448 EGLL-LEIB
Flight info
| Callsign | BAW448 |
|---|---|
| Flight time | N/A |
| Altitude | 35000 |
| Route | MODMI1J MODMI M185 MID L151 SITET UN859 SOPIL DCT BALAN DCT EVPOK DCT NARAK DCT GAI DCT LOMRA DCT ROCAN DCT PUMAL/N0448F310 N859 BCN Z174 CORDA CORDA5N |
| Aircraft | A319/M-SDE3FGIJ1KRWXY/LB1 |
Departure
| Time | 2026-04-30 14:24 |
|---|---|
| Airport | London Heathrow Airport (EGLL) |
Arrival
| Time | N/A |
|---|---|
| Airport | Ibiza Airport (LEIB) |
| Time | Latitude | Longitude | Altitude | Speed | Heading |
|---|---|---|---|---|---|
| 2026-04-30 13:18 | 51.46933 | -0.48573 | 86 ft | 0 kts | 360° |
| 2026-04-30 14:15 | 51.46929 | -0.48573 | 86 ft | 3 kts | 360° |
| 2026-04-30 14:15 | 51.46902 | -0.48573 | 86 ft | 3 kts | 360° |
| 2026-04-30 14:16 | 51.46884 | -0.48574 | 86 ft | 4 kts | 46° |
| 2026-04-30 14:16 | 51.46877 | -0.48607 | 86 ft | 3 kts | 90° |
| 2026-04-30 14:16 | 51.46877 | -0.48633 | 86 ft | 0 kts | 90° |
| 2026-04-30 14:21 | 51.46877 | -0.48615 | 88 ft | 4 kts | 90° |
| 2026-04-30 14:21 | 51.46877 | -0.48535 | 86 ft | 10 kts | 89° |
| 2026-04-30 14:21 | 51.46747 | -0.48499 | 89 ft | 14 kts | 235° |
| 2026-04-30 14:22 | 51.46742 | -0.48662 | 86 ft | 16 kts | 270° |
| 2026-04-30 14:22 | 51.46562 | -0.48782 | 86 ft | 16 kts | 185° |
| 2026-04-30 14:22 | 51.46479 | -0.48694 | 88 ft | 17 kts | 101° |
| 2026-04-30 14:23 | 51.46480 | -0.47999 | 87 ft | 73 kts | 90° |
| 2026-04-30 14:23 | 51.46493 | -0.45365 | 305 ft | 142 kts | 89° |
| 2026-04-30 14:24 | 51.46511 | -0.42199 | 1492 ft | 149 kts | 96° |
| 2026-04-30 14:24 | 51.46075 | -0.40580 | 1771 ft | 173 kts | 125° |
| 2026-04-30 14:25 | 51.44110 | -0.37571 | 2457 ft | 229 kts | 155° |
| 2026-04-30 14:25 | 51.40906 | -0.35923 | 4125 ft | 247 kts | 163° |
| 2026-04-30 14:26 | 51.37513 | -0.37132 | 5777 ft | 261 kts | 203° |
| 2026-04-30 14:26 | 51.35890 | -0.38465 | 5987 ft | 263 kts | 204° |
| 2026-04-30 14:26 | 51.32652 | -0.41194 | 7555 ft | 267 kts | 204° |
| 2026-04-30 14:27 | 51.30990 | -0.42570 | 8415 ft | 271 kts | 202° |
| 2026-04-30 14:27 | 51.29289 | -0.43929 | 9262 ft | 275 kts | 202° |
| 2026-04-30 14:27 | 51.27561 | -0.45280 | 10128 ft | 278 kts | 202° |
| 2026-04-30 14:28 | 51.23844 | -0.48184 | 10787 ft | 320 kts | 202° |
| 2026-04-30 14:28 | 51.21803 | -0.49788 | 11282 ft | 331 kts | 202° |
| 2026-04-30 14:28 | 51.19724 | -0.51416 | 11956 ft | 336 kts | 202° |
| 2026-04-30 14:28 | 51.17611 | -0.53061 | 12658 ft | 340 kts | 202° |
| 2026-04-30 14:29 | 51.13328 | -0.56373 | 14017 ft | 348 kts | 202° |
| 2026-04-30 14:29 | 51.09644 | -0.59201 | 15046 ft | 353 kts | 201° |
| 2026-04-30 14:30 | 51.01715 | -0.60005 | 17110 ft | 352 kts | 161° |
| 2026-04-30 14:31 | 50.97156 | -0.57029 | 18342 ft | 357 kts | 157° |
| 2026-04-30 14:31 | 50.92532 | -0.53979 | 19433 ft | 363 kts | 157° |
| 2026-04-30 14:31 | 50.90225 | -0.52468 | 19992 ft | 365 kts | 157° |
| 2026-04-30 14:32 | 50.85513 | -0.49378 | 21175 ft | 368 kts | 156° |
| 2026-04-30 14:32 | 50.83116 | -0.47806 | 21757 ft | 369 kts | 156° |
| 2026-04-30 14:32 | 50.80768 | -0.46268 | 22305 ft | 371 kts | 156° |
| 2026-04-30 14:33 | 50.78376 | -0.44699 | 22830 ft | 373 kts | 156° |
| 2026-04-30 14:33 | 50.73552 | -0.41550 | 23825 ft | 377 kts | 156° |
| 2026-04-30 14:33 | 50.71120 | -0.39967 | 24239 ft | 379 kts | 156° |
| 2026-04-30 14:34 | 50.68669 | -0.38370 | 24642 ft | 382 kts | 156° |
| 2026-04-30 14:34 | 50.66244 | -0.36789 | 25035 ft | 384 kts | 156° |
| 2026-04-30 14:34 | 50.63736 | -0.35158 | 25452 ft | 386 kts | 156° |
| 2026-04-30 14:34 | 50.61278 | -0.33564 | 25836 ft | 388 kts | 156° |
| 2026-04-30 14:35 | 50.57111 | -0.30866 | 26484 ft | 392 kts | 156° |
| 2026-04-30 14:35 | 50.53723 | -0.28673 | 26989 ft | 395 kts | 156° |
| 2026-04-30 14:35 | 50.51178 | -0.27025 | 27365 ft | 397 kts | 156° |
| 2026-04-30 14:36 | 50.48610 | -0.25362 | 27724 ft | 400 kts | 156° |
| 2026-04-30 14:36 | 50.46036 | -0.23699 | 28087 ft | 402 kts | 156° |
| 2026-04-30 14:36 | 50.43435 | -0.22025 | 28451 ft | 405 kts | 156° |
| 2026-04-30 14:36 | 50.40860 | -0.20366 | 28795 ft | 407 kts | 156° |
| 2026-04-30 14:37 | 50.38229 | -0.18670 | 29124 ft | 410 kts | 156° |
| 2026-04-30 14:37 | 50.35584 | -0.16970 | 29466 ft | 412 kts | 156° |
| 2026-04-30 14:37 | 50.32919 | -0.15263 | 29781 ft | 415 kts | 156° |
| 2026-04-30 14:37 | 50.30244 | -0.13553 | 30106 ft | 417 kts | 156° |
| 2026-04-30 14:38 | 50.27545 | -0.11830 | 30389 ft | 419 kts | 156° |
| 2026-04-30 14:38 | 50.24838 | -0.10106 | 30659 ft | 421 kts | 156° |
| 2026-04-30 14:38 | 50.22121 | -0.08375 | 30919 ft | 423 kts | 156° |
| 2026-04-30 14:38 | 50.19395 | -0.06613 | 31236 ft | 424 kts | 156° |
| 2026-04-30 14:39 | 50.16724 | -0.04797 | 31543 ft | 425 kts | 155° |
| 2026-04-30 14:39 | 50.14028 | -0.02907 | 31865 ft | 425 kts | 155° |
| 2026-04-30 14:39 | 50.11340 | -0.01007 | 32227 ft | 425 kts | 155° |
| 2026-04-30 14:40 | 50.05699 | 0.01721 | 32976 ft | 424 kts | 164° |
| 2026-04-30 14:40 | 50.02848 | 0.02852 | 33361 ft | 424 kts | 164° |
| 2026-04-30 14:40 | 49.99985 | 0.03974 | 33749 ft | 423 kts | 164° |
| 2026-04-30 14:40 | 49.97140 | 0.05084 | 34136 ft | 422 kts | 164° |
| 2026-04-30 14:41 | 49.94324 | 0.06186 | 34420 ft | 423 kts | 165° |
| 2026-04-30 14:41 | 49.91467 | 0.07305 | 34696 ft | 424 kts | 165° |
| 2026-04-30 14:41 | 49.88605 | 0.08428 | 34982 ft | 425 kts | 165° |
| 2026-04-30 14:41 | 49.85733 | 0.09554 | 35101 ft | 425 kts | 165° |
| 2026-04-30 14:42 | 49.80018 | 0.11790 | 35118 ft | 423 kts | 165° |
| 2026-04-30 14:42 | 49.74311 | 0.14020 | 35117 ft | 423 kts | 165° |
| 2026-04-30 14:43 | 49.68635 | 0.16214 | 35113 ft | 424 kts | 165° |
| 2026-04-30 14:43 | 49.62915 | 0.18473 | 35112 ft | 424 kts | 164° |
| 2026-04-30 14:44 | 49.57203 | 0.20796 | 35111 ft | 424 kts | 164° |
| 2026-04-30 14:44 | 49.51494 | 0.23111 | 35114 ft | 424 kts | 164° |
| 2026-04-30 14:45 | 49.45812 | 0.25394 | 35105 ft | 425 kts | 165° |
| 2026-04-30 14:45 | 49.40078 | 0.27681 | 35100 ft | 426 kts | 165° |
| 2026-04-30 14:46 | 49.34339 | 0.29967 | 35101 ft | 427 kts | 165° |
| 2026-04-30 14:46 | 49.29562 | 0.31878 | 35108 ft | 427 kts | 164° |
| 2026-04-30 14:47 | 49.22903 | 0.34682 | 35102 ft | 427 kts | 163° |
| 2026-04-30 14:47 | 49.17178 | 0.37129 | 35101 ft | 428 kts | 164° |
| 2026-04-30 14:48 | 49.11436 | 0.39560 | 35103 ft | 428 kts | 163° |
| 2026-04-30 14:48 | 49.05695 | 0.41967 | 35108 ft | 428 kts | 164° |
| 2026-04-30 14:49 | 49.00916 | 0.43954 | 35096 ft | 429 kts | 164° |
| 2026-04-30 14:49 | 48.94227 | 0.46735 | 35097 ft | 429 kts | 164° |
| 2026-04-30 14:50 | 48.86528 | 0.49938 | 35100 ft | 429 kts | 163° |
| 2026-04-30 14:51 | 48.77935 | 0.53492 | 35105 ft | 428 kts | 164° |
| 2026-04-30 14:52 | 48.69277 | 0.56899 | 35092 ft | 429 kts | 165° |
| 2026-04-30 14:52 | 48.60596 | 0.60253 | 35096 ft | 429 kts | 165° |
| 2026-04-30 14:53 | 48.51957 | 0.63619 | 35082 ft | 430 kts | 165° |
| 2026-04-30 14:54 | 48.40375 | 0.68328 | 35082 ft | 431 kts | 164° |
| 2026-04-30 14:55 | 48.31720 | 0.71854 | 35084 ft | 431 kts | 164° |
| 2026-04-30 14:56 | 48.20105 | 0.76515 | 35082 ft | 433 kts | 165° |
| 2026-04-30 14:57 | 48.11376 | 0.79917 | 35083 ft | 432 kts | 165° |
| 2026-04-30 14:58 | 47.99761 | 0.84467 | 35083 ft | 433 kts | 165° |
| 2026-04-30 14:58 | 47.91021 | 0.87883 | 35078 ft | 433 kts | 165° |
| 2026-04-30 15:00 | 47.76473 | 0.93519 | 35075 ft | 434 kts | 165° |
| 2026-04-30 15:01 | 47.64798 | 0.98034 | 35076 ft | 433 kts | 165° |
| 2026-04-30 15:01 | 47.56083 | 1.01396 | 35081 ft | 433 kts | 165° |
| 2026-04-30 15:02 | 47.50247 | 1.03630 | 35080 ft | 433 kts | 165° |
| 2026-04-30 15:03 | 47.41420 | 1.06358 | 35080 ft | 433 kts | 177° |
| 2026-04-30 15:03 | 47.35387 | 1.06254 | 35077 ft | 434 kts | 180° |
| 2026-04-30 15:04 | 47.20325 | 1.05915 | 35080 ft | 434 kts | 180° |
| 2026-04-30 15:06 | 47.05204 | 1.05562 | 35085 ft | 435 kts | 179° |
| 2026-04-30 15:07 | 46.93135 | 1.05135 | 35102 ft | 435 kts | 180° |
| 2026-04-30 15:08 | 46.81022 | 1.04565 | 35101 ft | 435 kts | 180° |
| 2026-04-30 15:09 | 46.65966 | 1.05576 | 35104 ft | 434 kts | 169° |
| 2026-04-30 15:10 | 46.54066 | 1.08439 | 35115 ft | 432 kts | 170° |
| 2026-04-30 15:11 | 46.36345 | 1.12647 | 35121 ft | 431 kts | 170° |
| 2026-04-30 15:13 | 46.21563 | 1.16122 | 35134 ft | 430 kts | 170° |
| 2026-04-30 15:14 | 46.00926 | 1.20966 | 35130 ft | 430 kts | 170° |
| 2026-04-30 15:17 | 45.74367 | 1.27138 | 35134 ft | 431 kts | 171° |
| 2026-04-30 15:19 | 45.50702 | 1.32607 | 35115 ft | 432 kts | 172° |